Uelen, Russia
Current Conditions -  °F | °C
As of 1:44 PM on Thursday 27 Nov 2014 (Local Time) from PAIW Reporting Station
Light Snow Light Snow  
Wind Chill: 18°   Ceiling: 2400
Heat Index: 34°   Visibility: 2.5mi
Dew Point: 30°   Wind: 39mph
Humidity: 87%   Direction: 160°SSE
Pressure: 30.11"   Gusts: 47mph
Location:  66.16°N, 169.82°W
Report Text: PAIW 270144Z AUTO 16034G41KT 2 1/2SM -SN BR OVC024 01/M01 A3011 RMK AO2 PK WND 16041/0142 RAE11SNB11 P0000 FZRANO
Loading
Personal Weather Stations






























Interactive Weather Map New forecast layout! Learn more

10-Day Weather Forecast

Advertisements
Track Severe Weather on mobile